sensor_id;sensor_type;location;lat;lon;timestamp;P1;durP1;ratioP1;P2;durP2;ratioP2
44706;SDS011;30433;45.596;8.408;2022-12-10T00:04:47;40.88;;;21.17;;
44706;SDS011;30433;45.596;8.408;2022-12-10T00:10:49;45.50;;;20.08;;
44706;SDS011;30433;45.596;8.408;2022-12-10T00:16:53;39.15;;;17.98;;
44706;SDS011;30433;45.596;8.408;2022-12-10T00:22:55;36.83;;;15.68;;
44706;SDS011;30433;45.596;8.408;2022-12-10T00:28:59;50.97;;;15.32;;
44706;SDS011;30433;45.596;8.408;2022-12-10T00:35:03;64.28;;;14.90;;
44706;SDS011;30433;45.596;8.408;2022-12-10T00:41:07;32.75;;;11.68;;
44706;SDS011;30433;45.596;8.408;2022-12-10T00:47:09;33.63;;;13.43;;
44706;SDS011;30433;45.596;8.408;2022-12-10T00:53:13;59.88;;;13.88;;
44706;SDS011;30433;45.596;8.408;2022-12-10T01:05:17;26.55;;;12.55;;
44706;SDS011;30433;45.596;8.408;2022-12-10T01:11:21;56.00;;;12.18;;
44706;SDS011;30433;45.596;8.408;2022-12-10T01:17:25;28.02;;;11.73;;
44706;SDS011;30433;45.596;8.408;2022-12-10T01:23:28;29.77;;;12.18;;
44706;SDS011;30433;45.596;8.408;2022-12-10T01:29:33;29.88;;;12.73;;
44706;SDS011;30433;45.596;8.408;2022-12-10T01:41:39;56.22;;;12.63;;
44706;SDS011;30433;45.596;8.408;2022-12-10T01:47:44;49.45;;;11.88;;
44706;SDS011;30433;45.596;8.408;2022-12-10T01:59:49;18.70;;;10.55;;
44706;SDS011;30433;45.596;8.408;2022-12-10T02:05:57;23.83;;;10.18;;
44706;SDS011;30433;45.596;8.408;2022-12-10T02:12:08;23.85;;;11.35;;
44706;SDS011;30433;45.596;8.408;2022-12-10T02:18:14;29.25;;;11.65;;
44706;SDS011;30433;45.596;8.408;2022-12-10T02:24:23;26.55;;;11.40;;
44706;SDS011;30433;45.596;8.408;2022-12-10T02:30:31;37.30;;;12.35;;
44706;SDS011;30433;45.596;8.408;2022-12-10T02:36:35;37.35;;;11.98;;
44706;SDS011;30433;45.596;8.408;2022-12-10T02:42:40;25.80;;;11.68;;
44706;SDS011;30433;45.596;8.408;2022-12-10T02:48:45;40.50;;;10.40;;
44706;SDS011;30433;45.596;8.408;2022-12-10T02:54:50;32.20;;;12.02;;
44706;SDS011;30433;45.596;8.408;2022-12-10T03:00:55;27.17;;;11.60;;
44706;SDS011;30433;45.596;8.408;2022-12-10T03:07:09;35.67;;;11.45;;
44706;SDS011;30433;45.596;8.408;2022-12-10T03:13:17;30.35;;;10.98;;
44706;SDS011;30433;45.596;8.408;2022-12-10T03:19:24;42.10;;;10.77;;
44706;SDS011;30433;45.596;8.408;2022-12-10T03:25:35;44.35;;;10.43;;
44706;SDS011;30433;45.596;8.408;2022-12-10T03:31:38;26.42;;;10.88;;
44706;SDS011;30433;45.596;8.408;2022-12-10T03:37:42;24.42;;;11.20;;
44706;SDS011;30433;45.596;8.408;2022-12-10T03:43:53;76.45;;;12.82;;
44706;SDS011;30433;45.596;8.408;2022-12-10T03:49:56;51.83;;;11.75;;
44706;SDS011;30433;45.596;8.408;2022-12-10T03:55:58;31.00;;;11.63;;
44706;SDS011;30433;45.596;8.408;2022-12-10T04:02:02;30.17;;;11.00;;
44706;SDS011;30433;45.596;8.408;2022-12-10T04:08:04;23.60;;;11.88;;
44706;SDS011;30433;45.596;8.408;2022-12-10T04:14:07;27.33;;;12.63;;
44706;SDS011;30433;45.596;8.408;2022-12-10T04:20:29;27.52;;;11.98;;
44706;SDS011;30433;45.596;8.408;2022-12-10T04:26:49;21.70;;;11.25;;
44706;SDS011;30433;45.596;8.408;2022-12-10T04:32:54;19.17;;;11.30;;
44706;SDS011;30433;45.596;8.408;2022-12-10T04:38:57;19.27;;;11.40;;
44706;SDS011;30433;45.596;8.408;2022-12-10T04:44:59;17.20;;;10.57;;
44706;SDS011;30433;45.596;8.408;2022-12-10T04:51:01;17.40;;;10.45;;
44706;SDS011;30433;45.596;8.408;2022-12-10T04:57:05;16.35;;;9.55;;
44706;SDS011;30433;45.596;8.408;2022-12-10T05:03:08;12.93;;;8.07;;
44706;SDS011;30433;45.596;8.408;2022-12-10T05:09:10;14.93;;;8.32;;
44706;SDS011;30433;45.596;8.408;2022-12-10T05:15:14;16.93;;;9.97;;
44706;SDS011;30433;45.596;8.408;2022-12-10T05:21:17;18.45;;;10.32;;
44706;SDS011;30433;45.596;8.408;2022-12-10T05:27:20;21.42;;;10.07;;
44706;SDS011;30433;45.596;8.408;2022-12-10T05:33:24;27.05;;;10.77;;
44706;SDS011;30433;45.596;8.408;2022-12-10T05:39:27;30.35;;;10.10;;
44706;SDS011;30433;45.596;8.408;2022-12-10T05:45:31;23.13;;;11.73;;
44706;SDS011;30433;45.596;8.408;2022-12-10T05:51:36;29.67;;;10.05;;
44706;SDS011;30433;45.596;8.408;2022-12-10T05:57:39;20.15;;;10.13;;
44706;SDS011;30433;45.596;8.408;2022-12-10T06:03:41;17.92;;;9.55;;
44706;SDS011;30433;45.596;8.408;2022-12-10T06:09:44;22.73;;;9.50;;
44706;SDS011;30433;45.596;8.408;2022-12-10T06:21:49;31.65;;;9.57;;
44706;SDS011;30433;45.596;8.408;2022-12-10T06:27:52;14.25;;;8.63;;
44706;SDS011;30433;45.596;8.408;2022-12-10T06:39:56;22.05;;;9.60;;
44706;SDS011;30433;45.596;8.408;2022-12-10T06:46:03;20.38;;;10.02;;
44706;SDS011;30433;45.596;8.408;2022-12-10T06:52:06;23.30;;;10.27;;
44706;SDS011;30433;45.596;8.408;2022-12-10T06:58:08;31.95;;;10.85;;
44706;SDS011;30433;45.596;8.408;2022-12-10T07:04:12;33.65;;;10.90;;
44706;SDS011;30433;45.596;8.408;2022-12-10T07:16:17;31.33;;;8.88;;
44706;SDS011;30433;45.596;8.408;2022-12-10T07:22:22;17.70;;;8.40;;
44706;SDS011;30433;45.596;8.408;2022-12-10T07:34:27;13.88;;;7.88;;
44706;SDS011;30433;45.596;8.408;2022-12-10T07:40:30;37.88;;;12.00;;
44706;SDS011;30433;45.596;8.408;2022-12-10T07:46:32;31.58;;;10.65;;
44706;SDS011;30433;45.596;8.408;2022-12-10T07:52:35;16.17;;;7.95;;
44706;SDS011;30433;45.596;8.408;2022-12-10T07:58:41;33.90;;;8.20;;
44706;SDS011;30433;45.596;8.408;2022-12-10T08:04:44;19.65;;;7.80;;
44706;SDS011;30433;45.596;8.408;2022-12-10T08:10:47;12.88;;;6.93;;
44706;SDS011;30433;45.596;8.408;2022-12-10T08:16:50;15.52;;;9.50;;
44706;SDS011;30433;45.596;8.408;2022-12-10T08:22:52;11.48;;;7.00;;
44706;SDS011;30433;45.596;8.408;2022-12-10T08:28:55;15.20;;;13.60;;
44706;SDS011;30433;45.596;8.408;2022-12-10T08:34:59;13.57;;;6.87;;
44706;SDS011;30433;45.596;8.408;2022-12-10T08:41:05;16.13;;;6.90;;
44706;SDS011;30433;45.596;8.408;2022-12-10T08:47:08;8.52;;;5.53;;
44706;SDS011;30433;45.596;8.408;2022-12-10T08:53:11;9.70;;;6.32;;
44706;SDS011;30433;45.596;8.408;2022-12-10T08:59:14;8.35;;;5.85;;
44706;SDS011;30433;45.596;8.408;2022-12-10T09:05:17;8.57;;;6.03;;
44706;SDS011;30433;45.596;8.408;2022-12-10T09:11:21;7.65;;;5.82;;
44706;SDS011;30433;45.596;8.408;2022-12-10T09:17:25;7.72;;;5.57;;
44706;SDS011;30433;45.596;8.408;2022-12-10T09:23:27;8.90;;;5.30;;
44706;SDS011;30433;45.596;8.408;2022-12-10T09:29:31;8.07;;;5.85;;
44706;SDS011;30433;45.596;8.408;2022-12-10T09:48:11;11.82;;;6.38;;
44706;SDS011;30433;45.596;8.408;2022-12-10T09:54:22;11.23;;;7.03;;
44706;SDS011;30433;45.596;8.408;2022-12-10T10:00:29;9.48;;;6.85;;
44706;SDS011;30433;45.596;8.408;2022-12-10T10:06:35;8.52;;;6.15;;
44706;SDS011;30433;45.596;8.408;2022-12-10T10:12:38;8.30;;;6.32;;
44706;SDS011;30433;45.596;8.408;2022-12-10T10:18:41;8.23;;;6.10;;
44706;SDS011;30433;45.596;8.408;2022-12-10T10:24:49;8.52;;;6.13;;
44706;SDS011;30433;45.596;8.408;2022-12-10T10:37:02;6.55;;;4.07;;
44706;SDS011;30433;45.596;8.408;2022-12-10T10:43:12;7.63;;;4.15;;
44706;SDS011;30433;45.596;8.408;2022-12-10T10:49:22;5.80;;;3.90;;
44706;SDS011;30433;45.596;8.408;2022-12-10T10:55:33;12.63;;;3.80;;
44706;SDS011;30433;45.596;8.408;2022-12-10T11:01:46;13.88;;;4.05;;
44706;SDS011;30433;45.596;8.408;2022-12-10T11:07:56;5.63;;;3.95;;
44706;SDS011;30433;45.596;8.408;2022-12-10T11:14:15;5.32;;;3.55;;
44706;SDS011;30433;45.596;8.408;2022-12-10T11:20:27;5.05;;;3.78;;
44706;SDS011;30433;45.596;8.408;2022-12-10T11:33:09;9.23;;;7.28;;
44706;SDS011;30433;45.596;8.408;2022-12-10T11:39:28;10.10;;;8.40;;
44706;SDS011;30433;45.596;8.408;2022-12-10T11:45:43;8.65;;;6.82;;
44706;SDS011;30433;45.596;8.408;2022-12-10T11:51:57;6.97;;;5.40;;
44706;SDS011;30433;45.596;8.408;2022-12-10T11:58:14;6.88;;;5.60;;
44706;SDS011;30433;45.596;8.408;2022-12-10T12:04:44;5.53;;;4.85;;
44706;SDS011;30433;45.596;8.408;2022-12-10T12:11:01;40.10;;;19.65;;
44706;SDS011;30433;45.596;8.408;2022-12-10T12:17:19;22.05;;;16.42;;
44706;SDS011;30433;45.596;8.408;2022-12-10T12:23:26;28.60;;;19.17;;
44706;SDS011;30433;45.596;8.408;2022-12-10T12:29:33;12.82;;;10.27;;
44706;SDS011;30433;45.596;8.408;2022-12-10T12:35:40;16.17;;;11.50;;
44706;SDS011;30433;45.596;8.408;2022-12-10T12:41:49;15.30;;;11.10;;
44706;SDS011;30433;45.596;8.408;2022-12-10T12:48:01;15.07;;;12.05;;
44706;SDS011;30433;45.596;8.408;2022-12-10T12:54:17;24.17;;;14.77;;
44706;SDS011;30433;45.596;8.408;2022-12-10T13:00:19;14.48;;;10.80;;
44706;SDS011;30433;45.596;8.408;2022-12-10T13:06:24;17.63;;;11.52;;
44706;SDS011;30433;45.596;8.408;2022-12-10T13:12:30;15.57;;;10.73;;
44706;SDS011;30433;45.596;8.408;2022-12-10T13:18:34;15.00;;;10.52;;
44706;SDS011;30433;45.596;8.408;2022-12-10T13:31:18;14.63;;;9.57;;
44706;SDS011;30433;45.596;8.408;2022-12-10T13:37:36;13.52;;;7.53;;
44706;SDS011;30433;45.596;8.408;2022-12-10T13:43:57;9.02;;;7.45;;
44706;SDS011;30433;45.596;8.408;2022-12-10T13:50:20;14.00;;;9.10;;
44706;SDS011;30433;45.596;8.408;2022-12-10T13:56:35;15.10;;;10.45;;
44706;SDS011;30433;45.596;8.408;2022-12-10T14:02:48;15.10;;;10.07;;
44706;SDS011;30433;45.596;8.408;2022-12-10T14:09:16;14.43;;;10.60;;
44706;SDS011;30433;45.596;8.408;2022-12-10T14:15:21;18.60;;;12.63;;
44706;SDS011;30433;45.596;8.408;2022-12-10T14:21:27;20.23;;;13.63;;
44706;SDS011;30433;45.596;8.408;2022-12-10T14:27:35;18.63;;;12.55;;
44706;SDS011;30433;45.596;8.408;2022-12-10T14:33:38;17.77;;;11.98;;
44706;SDS011;30433;45.596;8.408;2022-12-10T14:39:42;20.10;;;13.40;;
44706;SDS011;30433;45.596;8.408;2022-12-10T14:45:46;19.77;;;13.90;;
44706;SDS011;30433;45.596;8.408;2022-12-10T14:51:52;21.38;;;14.43;;
44706;SDS011;30433;45.596;8.408;2022-12-10T14:57:57;39.80;;;13.57;;
44706;SDS011;30433;45.596;8.408;2022-12-10T15:04:04;34.85;;;13.75;;
44706;SDS011;30433;45.596;8.408;2022-12-10T15:10:10;25.38;;;13.93;;
44706;SDS011;30433;45.596;8.408;2022-12-10T15:16:19;47.30;;;12.90;;
44706;SDS011;30433;45.596;8.408;2022-12-10T15:22:31;57.20;;;13.32;;
44706;SDS011;30433;45.596;8.408;2022-12-10T15:28:34;24.08;;;11.55;;
44706;SDS011;30433;45.596;8.408;2022-12-10T15:34:41;56.92;;;13.00;;
44706;SDS011;30433;45.596;8.408;2022-12-10T15:40:47;31.48;;;18.17;;
44706;SDS011;30433;45.596;8.408;2022-12-10T15:46:49;78.60;;;14.02;;
44706;SDS011;30433;45.596;8.408;2022-12-10T15:52:52;126.57;;;13.95;;
44706;SDS011;30433;45.596;8.408;2022-12-10T15:58:57;248.88;;;15.32;;
44706;SDS011;30433;45.596;8.408;2022-12-10T16:04:59;127.72;;;13.35;;
44706;SDS011;30433;45.596;8.408;2022-12-10T16:11:03;109.77;;;13.40;;
44706;SDS011;30433;45.596;8.408;2022-12-10T16:17:15;90.88;;;12.52;;
44706;SDS011;30433;45.596;8.408;2022-12-10T16:23:17;59.25;;;11.80;;
44706;SDS011;30433;45.596;8.408;2022-12-10T16:29:20;38.42;;;11.13;;
44706;SDS011;30433;45.596;8.408;2022-12-10T16:35:25;53.70;;;10.73;;
44706;SDS011;30433;45.596;8.408;2022-12-10T16:41:29;43.53;;;12.15;;
44706;SDS011;30433;45.596;8.408;2022-12-10T16:47:31;30.73;;;11.63;;
44706;SDS011;30433;45.596;8.408;2022-12-10T16:53:35;27.33;;;10.45;;
44706;SDS011;30433;45.596;8.408;2022-12-10T16:59:38;14.50;;;10.20;;
44706;SDS011;30433;45.596;8.408;2022-12-10T17:05:40;30.90;;;13.77;;
44706;SDS011;30433;45.596;8.408;2022-12-10T17:11:45;31.05;;;11.43;;
44706;SDS011;30433;45.596;8.408;2022-12-10T17:17:48;26.33;;;11.43;;
44706;SDS011;30433;45.596;8.408;2022-12-10T17:23:50;30.60;;;11.65;;
44706;SDS011;30433;45.596;8.408;2022-12-10T17:29:54;24.27;;;11.30;;
44706;SDS011;30433;45.596;8.408;2022-12-10T17:35:57;20.63;;;11.88;;
44706;SDS011;30433;45.596;8.408;2022-12-10T17:41:59;21.73;;;11.80;;
44706;SDS011;30433;45.596;8.408;2022-12-10T17:48:04;13.73;;;10.68;;
44706;SDS011;30433;45.596;8.408;2022-12-10T17:54:07;21.70;;;14.93;;
44706;SDS011;30433;45.596;8.408;2022-12-10T18:00:10;18.10;;;13.15;;
44706;SDS011;30433;45.596;8.408;2022-12-10T18:06:17;23.60;;;15.30;;
44706;SDS011;30433;45.596;8.408;2022-12-10T18:12:21;17.83;;;13.00;;
44706;SDS011;30433;45.596;8.408;2022-12-10T18:18:24;16.88;;;12.63;;
44706;SDS011;30433;45.596;8.408;2022-12-10T18:24:28;16.63;;;11.90;;
44706;SDS011;30433;45.596;8.408;2022-12-10T18:30:30;12.35;;;10.07;;
44706;SDS011;30433;45.596;8.408;2022-12-10T18:36:33;16.88;;;11.65;;
44706;SDS011;30433;45.596;8.408;2022-12-10T18:42:38;12.73;;;10.20;;
44706;SDS011;30433;45.596;8.408;2022-12-10T18:48:41;13.60;;;10.25;;
44706;SDS011;30433;45.596;8.408;2022-12-10T18:54:44;18.30;;;13.43;;
44706;SDS011;30433;45.596;8.408;2022-12-10T19:00:48;17.00;;;13.73;;
44706;SDS011;30433;45.596;8.408;2022-12-10T19:06:50;21.23;;;14.25;;
44706;SDS011;30433;45.596;8.408;2022-12-10T19:12:53;18.00;;;12.37;;
44706;SDS011;30433;45.596;8.408;2022-12-10T19:18:57;16.70;;;10.68;;
44706;SDS011;30433;45.596;8.408;2022-12-10T19:25:01;15.30;;;11.38;;
44706;SDS011;30433;45.596;8.408;2022-12-10T19:31:04;16.70;;;12.07;;
44706;SDS011;30433;45.596;8.408;2022-12-10T19:37:10;15.60;;;11.23;;
44706;SDS011;30433;45.596;8.408;2022-12-10T19:43:12;20.73;;;14.05;;
44706;SDS011;30433;45.596;8.408;2022-12-10T19:49:15;21.27;;;14.55;;
44706;SDS011;30433;45.596;8.408;2022-12-10T19:55:19;20.30;;;12.77;;
44706;SDS011;30433;45.596;8.408;2022-12-10T20:01:24;20.48;;;13.63;;
44706;SDS011;30433;45.596;8.408;2022-12-10T20:07:27;20.63;;;13.93;;
44706;SDS011;30433;45.596;8.408;2022-12-10T20:13:31;22.73;;;15.67;;
44706;SDS011;30433;45.596;8.408;2022-12-10T20:19:34;40.60;;;20.63;;
44706;SDS011;30433;45.596;8.408;2022-12-10T20:25:37;18.87;;;13.50;;
44706;SDS011;30433;45.596;8.408;2022-12-10T20:31:45;25.95;;;15.75;;
44706;SDS011;30433;45.596;8.408;2022-12-10T20:37:49;22.27;;;15.93;;
44706;SDS011;30433;45.596;8.408;2022-12-10T20:43:51;20.30;;;13.20;;
44706;SDS011;30433;45.596;8.408;2022-12-10T20:49:55;31.10;;;18.77;;
44706;SDS011;30433;45.596;8.408;2022-12-10T20:55:58;34.10;;;17.50;;
44706;SDS011;30433;45.596;8.408;2022-12-10T21:02:02;35.85;;;19.77;;
44706;SDS011;30433;45.596;8.408;2022-12-10T21:08:06;20.07;;;13.77;;
44706;SDS011;30433;45.596;8.408;2022-12-10T21:14:11;20.88;;;13.98;;
44706;SDS011;30433;45.596;8.408;2022-12-10T21:20:15;31.02;;;19.38;;
44706;SDS011;30433;45.596;8.408;2022-12-10T21:26:21;24.10;;;15.60;;
44706;SDS011;30433;45.596;8.408;2022-12-10T21:32:25;20.25;;;13.35;;
44706;SDS011;30433;45.596;8.408;2022-12-10T21:38:27;16.90;;;11.73;;
44706;SDS011;30433;45.596;8.408;2022-12-10T21:44:31;15.75;;;10.85;;
44706;SDS011;30433;45.596;8.408;2022-12-10T21:50:34;16.50;;;10.32;;
44706;SDS011;30433;45.596;8.408;2022-12-10T21:56:37;14.55;;;10.30;;
44706;SDS011;30433;45.596;8.408;2022-12-10T22:02:43;16.77;;;10.70;;
44706;SDS011;30433;45.596;8.408;2022-12-10T22:08:47;14.50;;;9.82;;
44706;SDS011;30433;45.596;8.408;2022-12-10T22:14:49;15.20;;;10.07;;
44706;SDS011;30433;45.596;8.408;2022-12-10T22:20:56;22.77;;;12.18;;
44706;SDS011;30433;45.596;8.408;2022-12-10T22:26:59;14.77;;;9.35;;
44706;SDS011;30433;45.596;8.408;2022-12-10T22:33:02;19.77;;;9.90;;
44706;SDS011;30433;45.596;8.408;2022-12-10T22:39:07;11.73;;;7.45;;
44706;SDS011;30433;45.596;8.408;2022-12-10T22:45:10;9.90;;;7.20;;
44706;SDS011;30433;45.596;8.408;2022-12-10T22:51:12;11.25;;;7.20;;
44706;SDS011;30433;45.596;8.408;2022-12-10T22:57:16;8.68;;;6.90;;
44706;SDS011;30433;45.596;8.408;2022-12-10T23:03:19;7.78;;;5.75;;
44706;SDS011;30433;45.596;8.408;2022-12-10T23:09:22;9.23;;;6.45;;
44706;SDS011;30433;45.596;8.408;2022-12-10T23:15:26;8.82;;;6.00;;
44706;SDS011;30433;45.596;8.408;2022-12-10T23:21:28;9.88;;;5.80;;
44706;SDS011;30433;45.596;8.408;2022-12-10T23:27:31;11.68;;;6.05;;
44706;SDS011;30433;45.596;8.408;2022-12-10T23:33:34;8.65;;;5.85;;
44706;SDS011;30433;45.596;8.408;2022-12-10T23:39:37;7.57;;;5.22;;
44706;SDS011;30433;45.596;8.408;2022-12-10T23:45:39;9.15;;;5.18;;
44706;SDS011;30433;45.596;8.408;2022-12-10T23:51:43;6.80;;;4.67;;
